Time;durP1;ratioP1;P1;durP2;ratioP2;P2;SDS_P1;SDS_P2;PMS_P1;PMS_P2;Temp;Humidity;BMP_temperature;BMP_pressure;BME280_temperature;BME280_humidity;BME280_pressure;Samples;Min_cycle;Max_cycle;Signal;HPM_P1;HPM_P2
2024/01/01 00:00:30;;;;;;;25.90;21.93;;;6.70;1.00;;;;;;5036008;28;20492;-81
2024/01/01 00:02:58;;;;;;;25.20;20.20;;;6.80;1.00;;;;;;5036695;28;20445;-80
2024/01/01 00:05:27;;;;;;;23.80;19.63;;;6.70;1.00;;;;;;5039128;28;20461;-79
2024/01/01 00:07:55;;;;;;;18.60;14.93;;;6.60;1.00;;;;;;5038169;28;20451;-79
2024/01/01 00:10:25;;;;;;;21.00;16.23;;;6.70;1.00;;;;;;5037382;28;20547;-79
2024/01/01 00:12:53;;;;;;;15.43;13.30;;;6.70;1.00;;;;;;5040641;28;20455;-79
2024/01/01 00:15:21;;;;;;;13.57;11.93;;;6.80;1.00;;;;;;5038460;28;20441;-79
2024/01/01 00:17:50;;;;;;;15.20;10.80;;;6.80;1.00;;;;;;5035123;28;20484;-79
2024/01/01 00:20:20;;;;;;;10.43;8.83;;;6.70;1.00;;;;;;5039424;28;20456;-80
2024/01/01 00:22:49;;;;;;;9.43;8.50;;;6.70;1.00;;;;;;5034602;28;20464;-80
2024/01/01 00:25:18;;;;;;;14.03;7.60;;;6.70;1.00;;;;;;5038264;28;20503;-81
2024/01/01 00:27:47;;;;;;;9.27;8.27;;;6.80;1.00;;;;;;5048991;28;20493;-78
2024/01/01 00:30:16;;;;;;;7.83;7.13;;;6.90;1.00;;;;;;5040469;28;20518;-79
2024/01/01 00:32:44;;;;;;;8.67;7.70;;;6.80;1.00;;;;;;5036706;28;20459;-77
2024/01/01 00:35:12;;;;;;;8.73;7.83;;;6.80;1.00;;;;;;5037661;28;20879;-79
2024/01/01 00:37:41;;;;;;;9.47;7.37;;;6.90;1.00;;;;;;5034591;28;20469;-79
2024/01/01 00:40:10;;;;;;;8.63;7.63;;;6.90;1.00;;;;;;5036889;28;21027;-79
2024/01/01 00:42:40;;;;;;;9.23;7.67;;;6.90;1.00;;;;;;5037015;28;20464;-80
2024/01/01 00:45:10;;;;;;;9.00;8.10;;;6.90;1.00;;;;;;5038259;28;20484;-79
2024/01/01 00:47:38;;;;;;;8.47;7.77;;;6.80;1.00;;;;;;5034070;28;20540;-81
2024/01/01 00:50:08;;;;;;;8.73;7.93;;;6.80;1.00;;;;;;5039626;28;20493;-79
2024/01/01 00:52:40;;;;;;;10.47;7.40;;;6.70;1.00;;;;;;5039693;28;20485;-80
2024/01/01 00:55:08;;;;;;;9.77;7.63;;;6.70;1.00;;;;;;5037023;28;20618;-81
2024/01/01 00:57:36;;;;;;;9.10;8.20;;;6.80;1.00;;;;;;5036793;28;20472;-79
2024/01/01 01:00:05;;;;;;;8.83;7.10;;;6.70;1.00;;;;;;5039010;28;21491;-80
2024/01/01 01:02:35;;;;;;;8.30;7.20;;;6.70;1.00;;;;;;5038966;28;20472;-80
2024/01/01 01:05:03;;;;;;;11.20;8.47;;;6.70;1.00;;;;;;5037197;28;20457;-79
2024/01/01 01:07:35;;;;;;;7.90;7.10;;;6.70;1.00;;;;;;5037277;28;20489;-79
2024/01/01 01:10:04;;;;;;;9.20;8.30;;;6.70;1.00;;;;;;5038088;28;20500;-80
2024/01/01 01:12:32;;;;;;;7.73;6.93;;;6.80;1.00;;;;;;5041652;28;20451;-81
2024/01/01 01:15:01;;;;;;;10.70;6.30;;;6.90;1.00;;;;;;5038202;28;20460;-79
2024/01/01 01:17:29;;;;;;;6.93;6.10;;;6.90;1.00;;;;;;5033978;28;21075;-80
2024/01/01 01:19:59;;;;;;;10.33;7.93;;;6.80;1.00;;;;;;5037690;28;20488;-79
2024/01/01 01:22:27;;;;;;;9.73;6.90;;;6.80;1.00;;;;;;5037698;28;20474;-80
2024/01/01 01:24:55;;;;;;;7.37;6.77;;;6.90;1.00;;;;;;5038656;28;20472;-78
2024/01/01 01:27:24;;;;;;;8.53;7.10;;;6.80;1.00;;;;;;5037868;28;20463;-78
2024/01/01 01:29:52;;;;;;;8.73;6.70;;;6.80;1.00;;;;;;5039506;28;20903;-79
2024/01/01 01:32:20;;;;;;;7.37;6.77;;;6.80;1.00;;;;;;5040428;28;20469;-79
2024/01/01 01:34:48;;;;;;;6.33;5.83;;;6.70;1.00;;;;;;5038688;28;20965;-79
2024/01/01 01:37:19;;;;;;;6.93;5.90;;;6.70;99.90;;;;;;5038445;28;20549;-79
2024/01/01 01:39:47;;;;;;;6.87;5.70;;;6.60;97.30;;;;;;5036089;28;20469;-79
2024/01/01 01:42:15;;;;;;;5.70;5.30;;;6.70;99.90;;;;;;5039939;28;20448;-81
2024/01/01 01:44:43;;;;;;;6.60;6.10;;;6.70;99.90;;;;;;5032438;28;20467;-79
2024/01/01 01:47:12;;;;;;;7.17;6.07;;;6.70;99.90;;;;;;5036320;28;20479;-80
2024/01/01 01:49:41;;;;;;;7.07;6.10;;;6.70;99.90;;;;;;5036306;28;20480;-80
2024/01/01 01:52:10;;;;;;;7.00;6.47;;;6.80;99.90;;;;;;5034783;28;20448;-79
2024/01/01 01:54:40;;;;;;;6.83;5.77;;;6.70;99.90;;;;;;5032312;28;21243;-78
2024/01/01 01:57:08;;;;;;;7.07;5.77;;;6.70;99.90;;;;;;5037047;28;20954;-80
2024/01/01 01:59:36;;;;;;;6.70;5.23;;;6.70;99.90;;;;;;5037800;28;20846;-79
2024/01/01 02:02:05;;;;;;;5.47;5.10;;;6.70;99.90;;;;;;5038007;28;20475;-80
2024/01/01 02:04:34;;;;;;;6.60;6.07;;;6.70;99.90;;;;;;5037605;28;20542;-81
2024/01/01 02:07:02;;;;;;;6.10;5.60;;;6.70;99.90;;;;;;5033750;28;20453;-80
2024/01/01 02:09:31;;;;;;;5.60;5.10;;;6.80;99.90;;;;;;5036736;28;20489;-80
2024/01/01 02:12:01;;;;;;;5.77;5.17;;;6.60;99.90;;;;;;5029472;28;20841;-79
2024/01/01 02:14:30;;;;;;;5.33;4.70;;;6.70;99.90;;;;;;5038608;28;20492;-79
2024/01/01 02:16:58;;;;;;;5.80;5.40;;;6.80;99.90;;;;;;5035854;28;20551;-79
2024/01/01 02:19:28;;;;;;;5.43;5.03;;;6.80;99.90;;;;;;5037339;28;20481;-79
2024/01/01 02:21:57;;;;;;;7.23;6.63;;;6.70;99.90;;;;;;5037683;28;20451;-79
2024/01/01 02:24:27;;;;;;;5.33;4.67;;;6.70;99.90;;;;;;5038621;28;20452;-79
2024/01/01 02:26:55;;;;;;;5.37;4.97;;;6.70;99.90;;;;;;5035845;28;20803;-80
2024/01/01 02:29:23;;;;;;;5.70;5.30;;;6.70;99.90;;;;;;5039803;28;20479;-80
2024/01/01 02:31:52;;;;;;;6.33;5.93;;;6.70;99.90;;;;;;5037996;28;20476;-79
2024/01/01 02:34:22;;;;;;;5.87;4.80;;;6.80;1.00;;;;;;5037948;28;20464;-80
2024/01/01 02:36:50;;;;;;;6.03;5.63;;;6.70;99.90;;;;;;5036014;28;20475;-80
2024/01/01 02:39:18;;;;;;;6.13;5.53;;;6.70;99.90;;;;;;5036810;28;20506;-80
2024/01/01 02:41:48;;;;;;;6.50;5.90;;;6.70;1.00;;;;;;5035226;28;20460;-80
2024/01/01 02:44:18;;;;;;;6.80;5.80;;;6.70;99.90;;;;;;5038777;28;20461;-81
2024/01/01 02:46:47;;;;;;;6.47;5.97;;;6.70;99.90;;;;;;5049107;28;20445;-79
2024/01/01 02:49:16;;;;;;;6.50;5.93;;;6.70;99.90;;;;;;5036398;28;20464;-80
2024/01/01 02:51:44;;;;;;;6.40;5.80;;;6.80;1.00;;;;;;5037789;28;20534;-79
2024/01/01 02:54:13;;;;;;;6.07;5.67;;;6.80;99.90;;;;;;5038108;28;20449;-80
2024/01/01 02:56:41;;;;;;;7.60;7.00;;;6.70;1.00;;;;;;5038182;28;21263;-81
2024/01/01 02:59:12;;;;;;;7.10;6.43;;;6.70;1.00;;;;;;5035442;28;20496;-79
2024/01/01 03:01:40;;;;;;;6.67;5.90;;;6.70;99.90;;;;;;5029576;28;20471;-80
2024/01/01 03:04:08;;;;;;;6.50;6.00;;;6.70;1.00;;;;;;5035754;28;20552;-80
2024/01/01 03:06:37;;;;;;;7.33;6.63;;;6.70;1.00;;;;;;5032867;28;20461;-78
2024/01/01 03:09:05;;;;;;;6.70;6.20;;;6.70;99.90;;;;;;5037597;28;20483;-81
2024/01/01 03:11:33;;;;;;;8.10;6.37;;;6.70;1.00;;;;;;5035375;28;20547;-80
2024/01/01 03:14:01;;;;;;;8.57;6.53;;;6.70;1.00;;;;;;5037310;28;20468;-79
2024/01/01 03:16:31;;;;;;;8.50;6.67;;;6.70;99.90;;;;;;5028763;28;21985;-79
2024/01/01 03:18:59;;;;;;;9.17;6.77;;;6.80;1.00;;;;;;5036211;28;20859;-80
2024/01/01 03:21:31;;;;;;;8.40;7.30;;;6.70;1.00;;;;;;5036208;28;20480;-79
2024/01/01 03:23:59;;;;;;;7.57;6.97;;;6.80;99.90;;;;;;5035975;28;20978;-81
2024/01/01 03:26:28;;;;;;;8.23;6.50;;;6.80;1.00;;;;;;5031704;28;20464;-77
2024/01/01 03:28:56;;;;;;;6.63;6.13;;;6.70;1.00;;;;;;5038251;28;20475;-79
2024/01/01 03:31:25;;;;;;;8.60;7.33;;;6.80;2.10;;;;;;5036059;28;20484;-80
2024/01/01 03:33:55;;;;;;;6.93;6.40;;;6.70;1.00;;;;;;5034646;28;20484;-79
2024/01/01 03:36:23;;;;;;;8.10;7.40;;;6.70;36.20;;;;;;5031519;28;20456;-79
2024/01/01 03:38:52;;;;;;;12.83;9.17;;;6.70;20.10;;;;;;5037195;28;20479;-79
2024/01/01 03:41:24;;;;;;;6.23;5.83;;;6.70;1.00;;;;;;5034320;28;20461;-79
2024/01/01 03:43:52;;;;;;;5.87;5.47;;;6.70;1.00;;;;;;5036692;28;20449;-78
2024/01/01 03:46:20;;;;;;;6.50;5.73;;;6.70;1.00;;;;;;5033251;28;20506;-80
2024/01/01 03:48:49;;;;;;;5.73;5.30;;;6.70;1.00;;;;;;5035344;28;20465;-79
2024/01/01 03:51:18;;;;;;;5.60;5.30;;;6.70;1.00;;;;;;5034257;28;20456;-79
2024/01/01 03:53:47;;;;;;;5.60;5.20;;;6.60;1.00;;;;;;5032431;28;20546;-79
2024/01/01 03:56:15;;;;;;;5.60;5.13;;;6.70;1.00;;;;;;5030253;28;20484;-79
2024/01/01 03:58:43;;;;;;;11.43;5.53;;;6.60;1.00;;;;;;5035414;28;20475;-80
2024/01/01 04:01:13;;;;;;;5.23;4.93;;;6.70;99.90;;;;;;5031302;28;20456;-79
2024/01/01 04:03:42;;;;;;;6.40;4.53;;;6.70;1.00;;;;;;5035696;28;20448;-79
2024/01/01 04:06:10;;;;;;;4.20;4.00;;;6.70;1.00;;;;;;5035324;28;20484;-79
2024/01/01 04:08:40;;;;;;;7.27;4.60;;;6.70;99.90;;;;;;5033664;28;20481;-80
2024/01/01 04:11:08;;;;;;;5.80;4.30;;;6.70;99.90;;;;;;5034248;28;20464;-79
2024/01/01 04:13:36;;;;;;;4.20;4.00;;;6.60;51.00;;;;;;5035288;28;20543;-78
2024/01/01 04:16:07;;;;;;;3.97;3.87;;;6.50;76.40;;;;;;5034444;28;20456;-79
2024/01/01 04:18:35;;;;;;;3.90;3.70;;;6.50;35.10;;;;;;5037517;28;20474;-79
2024/01/01 04:21:04;;;;;;;4.40;4.10;;;6.60;99.90;;;;;;5033429;28;20453;-80
2024/01/01 04:23:33;;;;;;;3.77;3.57;;;6.60;14.70;;;;;;5037868;28;20481;-80
2024/01/01 04:26:03;;;;;;;3.80;3.60;;;6.70;67.80;;;;;;5035935;28;20543;-80
2024/01/01 04:28:31;;;;;;;3.63;3.53;;;6.60;1.00;;;;;;5039754;28;20476;-80
2024/01/01 04:31:00;;;;;;;3.97;3.77;;;6.70;1.00;;;;;;5034908;28;20470;-79
2024/01/01 04:33:28;;;;;;;3.40;3.20;;;6.70;1.00;;;;;;5039330;28;21026;-80
2024/01/01 04:35:57;;;;;;;4.03;3.70;;;6.70;1.00;;;;;;5037057;28;20545;-79
2024/01/01 04:38:25;;;;;;;3.80;3.60;;;6.60;1.00;;;;;;5037365;28;20476;-80
2024/01/01 04:40:53;;;;;;;3.67;3.40;;;6.60;1.00;;;;;;5038801;28;20440;-79
2024/01/01 04:43:24;;;;;;;4.70;4.27;;;6.60;1.00;;;;;;5038782;28;20951;-79
2024/01/01 04:45:52;;;;;;;3.87;3.60;;;6.70;1.00;;;;;;5034444;28;20463;-80
2024/01/01 04:48:22;;;;;;;5.40;3.30;;;6.70;99.90;;;;;;5039726;28;20559;-80
2024/01/01 04:50:50;;;;;;;3.00;2.90;;;6.70;99.90;;;;;;5034788;28;20452;-79
2024/01/01 04:53:18;;;;;;;3.40;3.10;;;6.70;99.90;;;;;;5036027;28;20554;-79
2024/01/01 04:55:47;;;;;;;3.43;3.23;;;6.70;99.90;;;;;;5038632;28;20490;-79
2024/01/01 04:58:15;;;;;;;3.40;3.20;;;6.60;99.90;;;;;;5037027;28;20468;-80
2024/01/01 05:00:45;;;;;;;3.87;3.10;;;6.60;99.90;;;;;;5039126;28;20482;-79
2024/01/01 05:03:13;;;;;;;3.20;2.93;;;6.60;99.90;;;;;;5035028;28;20461;-80
2024/01/01 05:05:42;;;;;;;2.80;2.70;;;6.70;99.90;;;;;;5038435;28;20452;-80
2024/01/01 05:08:10;;;;;;;3.57;3.30;;;6.70;1.00;;;;;;5036439;28;20474;-79
2024/01/01 05:10:40;;;;;;;3.83;3.53;;;6.60;1.00;;;;;;5039487;28;20448;-81
2024/01/01 05:13:08;;;;;;;4.30;3.20;;;6.70;1.00;;;;;;5038631;28;21084;-80
2024/01/01 05:15:38;;;;;;;3.40;3.20;;;6.70;1.00;;;;;;5041651;28;20454;-80
2024/01/01 05:18:07;;;;;;;3.60;3.40;;;6.70;99.90;;;;;;5038412;28;20492;-79
2024/01/01 05:20:37;;;;;;;3.37;3.07;;;6.70;99.90;;;;;;5039329;28;20497;-79
2024/01/01 05:23:05;;;;;;;3.10;2.90;;;6.70;99.90;;;;;;5038991;28;20440;-79
2024/01/01 05:25:33;;;;;;;2.90;2.80;;;6.60;99.90;;;;;;5039595;28;20555;-79
2024/01/01 05:28:02;;;;;;;3.17;2.87;;;6.70;99.90;;;;;;5038674;28;20444;-80
2024/01/01 05:30:31;;;;;;;3.00;2.80;;;6.70;99.90;;;;;;5038846;28;20463;-79
2024/01/01 05:33:00;;;;;;;3.20;2.90;;;6.70;99.90;;;;;;5038578;28;20544;-80
2024/01/01 05:35:31;;;;;;;3.10;2.90;;;6.70;99.90;;;;;;5052752;28;21000;-80
2024/01/01 05:37:59;;;;;;;3.57;3.10;;;6.60;99.90;;;;;;5035838;28;20457;-80
2024/01/01 05:40:27;;;;;;;2.97;2.77;;;6.60;99.90;;;;;;5038878;28;20506;-80
2024/01/01 05:42:56;;;;;;;2.97;2.87;;;6.60;99.90;;;;;;5038746;28;20599;-79
2024/01/01 05:45:24;;;;;;;3.70;2.80;;;6.60;99.90;;;;;;5038887;28;21224;-79
2024/01/01 05:47:52;;;;;;;3.57;3.27;;;6.60;99.90;;;;;;5036750;28;20463;-80
2024/01/01 05:50:23;;;;;;;3.47;3.20;;;6.60;99.90;;;;;;5056563;28;20449;-79
2024/01/01 05:52:52;;;;;;;3.90;3.70;;;6.40;99.90;;;;;;5037310;28;20875;-79
2024/01/01 05:55:21;;;;;;;4.07;3.30;;;6.40;99.90;;;;;;5035879;28;20534;-80
2024/01/01 05:57:49;;;;;;;4.87;3.13;;;6.50;99.90;;;;;;5035737;28;20511;-79
2024/01/01 06:00:19;;;;;;;8.33;3.33;;;6.50;99.90;;;;;;5028533;28;20473;-80
2024/01/01 06:02:47;;;;;;;3.23;3.10;;;6.50;99.90;;;;;;5034492;28;21045;-81
2024/01/01 06:05:15;;;;;;;3.50;2.70;;;6.50;99.90;;;;;;5037011;28;20457;-81
2024/01/01 06:07:44;;;;;;;3.17;3.03;;;6.50;99.90;;;;;;5036570;28;20452;-79
2024/01/01 06:10:14;;;;;;;2.83;2.73;;;6.50;99.90;;;;;;5036082;28;20526;-79
2024/01/01 06:12:42;;;;;;;6.10;3.63;;;6.50;99.90;;;;;;5038607;28;20446;-79
2024/01/01 06:15:11;;;;;;;3.10;2.90;;;6.50;99.90;;;;;;5037668;28;20466;-79
2024/01/01 06:17:39;;;;;;;3.90;3.50;;;6.50;99.90;;;;;;5033143;28;20453;-79
2024/01/01 06:20:08;;;;;;;3.13;3.03;;;6.50;99.90;;;;;;5033513;28;21018;-79
2024/01/01 06:22:37;;;;;;;3.07;2.90;;;6.50;99.90;;;;;;5033099;28;20966;-78
2024/01/01 06:25:06;;;;;;;3.03;2.90;;;6.50;99.90;;;;;;5032601;28;20471;-79
2024/01/01 06:27:35;;;;;;;2.90;2.70;;;6.60;99.90;;;;;;5036524;28;20949;-81
2024/01/01 06:30:05;;;;;;;4.77;2.97;;;6.50;99.90;;;;;;5033972;28;20480;-81
2024/01/01 06:32:33;;;;;;;2.73;2.53;;;6.50;99.90;;;;;;5036410;28;20453;-79
2024/01/01 06:35:01;;;;;;;4.63;3.30;;;6.50;99.90;;;;;;5033378;28;20528;-79
2024/01/01 06:37:30;;;;;;;2.73;2.60;;;6.50;94.20;;;;;;5035959;28;20452;-78
2024/01/01 06:39:58;;;;;;;3.07;2.87;;;6.50;99.90;;;;;;5033185;28;20479;-80
2024/01/01 06:42:26;;;;;;;2.87;2.60;;;6.50;99.90;;;;;;5038358;28;20503;-79
2024/01/01 06:45:00;;;;;;;4.20;3.80;;;6.50;75.70;;;;;;5034513;28;21099;-79
2024/01/01 06:47:29;;;;;;;2.97;2.77;;;6.50;99.90;;;;;;5034249;28;20451;-80
2024/01/01 06:49:57;;;;;;;3.13;2.80;;;6.50;99.90;;;;;;5034039;28;21132;-81
2024/01/01 06:52:25;;;;;;;3.00;2.90;;;6.50;99.90;;;;;;5035729;28;20954;-79
2024/01/01 06:54:54;;;;;;;3.07;2.87;;;6.50;99.90;;;;;;5035735;28;20542;-78
2024/01/01 06:57:22;;;;;;;3.30;3.00;;;6.60;99.90;;;;;;5035028;28;20531;-79
2024/01/01 06:59:51;;;;;;;3.73;3.10;;;6.50;99.90;;;;;;5036965;28;20923;-79
2024/01/01 07:02:20;;;;;;;3.13;2.83;;;6.60;99.90;;;;;;5037645;28;20448;-79
2024/01/01 07:04:49;;;;;;;3.27;3.07;;;6.40;99.90;;;;;;5035487;28;20456;-80
2024/01/01 07:07:17;;;;;;;2.80;2.70;;;6.50;99.90;;;;;;5036668;28;20449;-79
2024/01/01 07:09:46;;;;;;;2.87;2.70;;;6.50;99.90;;;;;;5037484;28;20478;-80
2024/01/01 07:12:19;;;;;;;2.97;2.70;;;6.50;99.90;;;;;;5036920;28;20491;-78
2024/01/01 07:14:47;;;;;;;3.20;2.80;;;6.50;99.90;;;;;;5035331;28;20535;-79
2024/01/01 07:17:16;;;;;;;4.43;3.20;;;6.40;99.90;;;;;;5036553;28;20452;-79
2024/01/01 07:19:46;;;;;;;3.80;3.43;;;6.50;99.90;;;;;;5037804;28;20464;-79
2024/01/01 07:22:15;;;;;;;3.17;2.90;;;6.50;99.90;;;;;;5035983;28;20453;-78
2024/01/01 07:24:43;;;;;;;2.97;2.80;;;6.50;99.90;;;;;;5037697;28;20484;-79
2024/01/01 07:27:12;;;;;;;4.40;3.70;;;6.50;99.90;;;;;;5037233;28;20489;-80
2024/01/01 07:29:41;;;;;;;3.23;3.13;;;6.40;51.30;;;;;;5036850;28;20472;-79
2024/01/01 07:32:09;;;;;;;3.20;2.90;;;6.40;99.90;;;;;;5036805;28;20521;-80
2024/01/01 07:34:38;;;;;;;2.90;2.80;;;6.50;99.90;;;;;;5038704;28;20445;-79
2024/01/01 07:37:07;;;;;;;3.20;3.00;;;6.50;99.90;;;;;;5036634;28;20460;-79
2024/01/01 07:39:35;;;;;;;3.13;2.93;;;6.60;99.90;;;;;;5036745;28;20815;-80
2024/01/01 07:42:04;;;;;;;4.20;3.77;;;6.50;99.90;;;;;;5037654;28;20465;-80
2024/01/01 07:44:33;;;;;;;3.30;3.03;;;6.50;99.90;;;;;;5036948;28;20460;-79
2024/01/01 07:47:02;;;;;;;4.23;3.00;;;6.60;99.90;;;;;;5034743;28;20531;-80
2024/01/01 07:49:30;;;;;;;3.40;3.10;;;6.60;99.90;;;;;;5034429;28;20474;-81
2024/01/01 07:51:58;;;;;;;9.63;3.90;;;6.50;99.90;;;;;;5037991;28;20457;-81
2024/01/01 07:54:28;;;;;;;3.40;3.17;;;6.60;65.00;;;;;;5040754;28;20467;-79
2024/01/01 07:56:57;;;;;;;7.27;3.50;;;6.60;79.20;;;;;;5032057;28;21008;-79
2024/01/01 07:59:25;;;;;;;4.80;4.30;;;6.60;81.80;;;;;;5039439;28;21016;-79
2024/01/01 08:01:53;;;;;;;9.43;3.03;;;6.60;99.90;;;;;;5039695;28;20495;-79
2024/01/01 08:04:21;;;;;;;2.93;2.70;;;6.50;99.90;;;;;;5039617;28;20463;-80
2024/01/01 08:06:50;;;;;;;3.13;2.93;;;6.50;99.90;;;;;;5041081;28;20440;-80
2024/01/01 08:09:18;;;;;;;3.80;3.53;;;6.60;99.90;;;;;;5039913;28;21005;-79
2024/01/01 08:11:48;;;;;;;7.10;3.20;;;6.60;99.90;;;;;;5040825;28;20452;-80
2024/01/01 08:14:16;;;;;;;3.40;3.00;;;6.60;99.90;;;;;;5042473;28;20498;-81
2024/01/01 08:16:44;;;;;;;3.10;2.90;;;6.70;99.90;;;;;;5037306;28;20452;-79
2024/01/01 08:19:12;;;;;;;4.93;3.10;;;6.80;99.90;;;;;;5038977;28;20465;-78
2024/01/01 08:21:41;;;;;;;3.40;2.80;;;6.80;99.90;;;;;;5039071;28;20565;-81
2024/01/01 08:24:09;;;;;;;2.93;2.83;;;7.00;99.90;;;;;;5038963;28;20476;-80
2024/01/01 08:26:37;;;;;;;3.63;3.33;;;7.00;99.90;;;;;;5039230;28;20472;-80
2024/01/01 08:29:07;;;;;;;7.50;3.30;;;7.10;99.90;;;;;;5038137;28;20479;-80
2024/01/01 08:31:35;;;;;;;3.40;3.20;;;7.20;99.90;;;;;;5038814;28;20527;-79
2024/01/01 08:34:04;;;;;;;3.30;2.90;;;7.20;99.90;;;;;;5038100;28;20468;-80
2024/01/01 08:36:32;;;;;;;4.03;3.20;;;7.30;99.90;;;;;;5039279;28;20448;-81
2024/01/01 08:39:00;;;;;;;3.27;2.97;;;7.30;98.70;;;;;;5037317;28;20476;-80
2024/01/01 08:41:29;;;;;;;4.00;3.53;;;7.30;85.80;;;;;;5037314;28;20483;-79
2024/01/01 08:43:57;;;;;;;3.60;3.50;;;7.30;53.40;;;;;;5038676;28;20508;-80
2024/01/01 08:46:27;;;;;;;3.23;3.13;;;7.30;91.20;;;;;;5041235;28;20527;-80
2024/01/01 08:48:55;;;;;;;5.37;3.77;;;7.40;33.80;;;;;;5038026;28;20476;-79
2024/01/01 08:51:24;;;;;;;3.07;2.83;;;7.40;94.70;;;;;;5040768;28;20498;-80
2024/01/01 08:53:52;;;;;;;3.20;3.00;;;7.30;66.80;;;;;;5038152;28;20631;-79
2024/01/01 08:56:20;;;;;;;7.17;3.73;;;7.30;93.90;;;;;;5036526;28;20543;-79
2024/01/01 08:58:49;;;;;;;4.80;2.60;;;7.10;38.00;;;;;;5036633;28;20499;-79
2024/01/01 09:01:17;;;;;;;2.90;2.70;;;7.20;72.00;;;;;;5037325;28;20539;-80
2024/01/01 09:03:47;;;;;;;3.00;2.90;;;7.30;16.50;;;;;;5036815;28;20996;-79
2024/01/01 09:06:15;;;;;;;3.50;2.90;;;7.30;1.00;;;;;;5036456;28;21306;-81
2024/01/01 09:08:44;;;;;;;2.63;2.27;;;7.40;1.00;;;;;;5035814;28;20471;-79
2024/01/01 09:11:12;;;;;;;5.37;2.60;;;7.40;1.00;;;;;;5039201;28;20448;-78
2024/01/01 09:13:41;;;;;;;3.53;3.03;;;7.50;1.00;;;;;;5036885;28;20459;-81
2024/01/01 09:16:09;;;;;;;3.13;2.83;;;7.50;1.00;;;;;;5038260;28;20513;-79
2024/01/01 09:18:38;;;;;;;2.80;2.67;;;7.70;1.00;;;;;;5039708;28;20491;-80
2024/01/01 09:21:14;;;;;;;2.87;2.67;;;7.70;1.00;;;;;;5039228;28;20993;-80
2024/01/01 09:23:42;;;;;;;5.47;3.30;;;7.80;1.00;;;;;;5042347;28;20970;-79
2024/01/01 09:26:10;;;;;;;3.93;3.20;;;7.70;1.00;;;;;;5037135;28;21279;-80
2024/01/01 09:28:41;;;;;;;2.70;2.50;;;7.90;1.00;;;;;;5037801;28;20477;-78
2024/01/01 09:31:09;;;;;;;2.50;2.40;;;8.00;1.00;;;;;;5040210;28;20457;-79
2024/01/01 09:33:39;;;;;;;2.80;2.70;;;8.00;1.00;;;;;;5041514;28;20531;-80
2024/01/01 09:36:12;;;;;;;2.77;2.60;;;8.20;1.00;;;;;;5038632;28;20453;-81
2024/01/01 09:38:40;;;;;;;2.90;2.70;;;8.10;1.00;;;;;;5040644;28;20490;-80
2024/01/01 09:41:11;;;;;;;3.20;2.90;;;8.20;1.00;;;;;;5035833;28;20444;-79
2024/01/01 09:43:41;;;;;;;2.90;2.80;;;8.20;1.00;;;;;;5037828;28;20456;-80
2024/01/01 09:46:09;;;;;;;3.87;3.57;;;8.40;1.00;;;;;;5037775;28;20477;-78
2024/01/01 09:48:37;;;;;;;2.50;2.30;;;8.60;1.00;;;;;;5035294;28;20491;-81
2024/01/01 09:51:06;;;;;;;4.60;2.90;;;8.50;1.00;;;;;;5038172;28;20510;-79
2024/01/01 09:53:36;;;;;;;2.60;2.40;;;8.70;1.00;;;;;;5037449;28;20441;-79
2024/01/01 09:56:05;;;;;;;2.80;2.60;;;8.80;99.90;;;;;;5035153;28;20514;-78
2024/01/01 09:58:41;;;;;;;4.80;2.67;;;8.80;99.90;;;;;;5034541;28;20477;-80
2024/01/01 10:01:11;;;;;;;3.90;2.70;;;9.00;99.90;;;;;;5036969;28;20506;-80
2024/01/01 10:03:40;;;;;;;2.70;2.57;;;9.10;99.90;;;;;;5037206;28;21020;-81
2024/01/01 10:06:10;;;;;;;3.03;2.80;;;9.10;99.90;;;;;;5036153;28;20468;-79
2024/01/01 10:08:40;;;;;;;2.77;2.57;;;9.20;99.90;;;;;;5034140;28;21835;-80
2024/01/01 10:11:17;;;;;;;2.57;2.37;;;9.30;99.90;;;;;;5037931;28;20531;-80
2024/01/01 10:13:46;;;;;;;2.40;2.30;;;9.50;99.90;;;;;;5036530;28;20558;-79
2024/01/01 10:16:25;;;;;;;3.50;3.20;;;9.80;99.90;;;;;;5037381;28;20452;-81
2024/01/01 10:18:56;;;;;;;3.43;3.10;;;10.20;99.90;;;;;;5038157;28;20475;-80
2024/01/01 10:21:29;;;;;;;3.17;2.87;;;10.30;99.90;;;;;;5035679;28;20551;-80
2024/01/01 10:23:59;;;;;;;2.30;2.20;;;10.40;99.90;;;;;;5039095;28;20472;-79
2024/01/01 10:26:39;;;;;;;2.27;2.17;;;10.20;99.90;;;;;;5037626;28;20539;-79
2024/01/01 10:29:12;;;;;;;2.97;2.67;;;10.20;99.90;;;;;;5037471;28;20500;-79
2024/01/01 10:31:45;;;;;;;4.47;2.87;;;10.10;99.90;;;;;;5020146;28;20482;-81
2024/01/01 10:34:17;;;;;;;2.30;2.10;;;10.20;99.90;;;;;;5036245;28;20471;-78
2024/01/01 10:36:46;;;;;;;8.17;2.53;;;10.40;99.90;;;;;;5035347;28;20966;-77
2024/01/01 10:39:19;;;;;;;2.83;2.50;;;10.20;99.90;;;;;;5036584;28;21111;-80
2024/01/01 10:41:49;;;;;;;4.53;2.30;;;9.90;99.90;;;;;;5037647;28;21459;-79
2024/01/01 10:44:17;;;;;;;3.70;3.17;;;10.10;99.90;;;;;;5038068;28;20951;-81
2024/01/01 10:46:47;;;;;;;3.30;2.20;;;9.90;99.90;;;;;;5034336;28;20452;-79
2024/01/01 10:49:22;;;;;;;3.93;2.10;;;9.70;99.90;;;;;;5035359;28;20476;-81
2024/01/01 10:52:03;;;;;;;2.57;2.40;;;10.20;99.90;;;;;;5035798;28;20451;-80
2024/01/01 10:55:15;;;;;;;4.97;2.67;;;10.50;99.90;;;;;;5037359;28;20452;-81
2024/01/01 10:58:11;;;;;;;2.33;2.10;;;10.20;99.90;;;;;;5008632;28;20455;-78
2024/01/01 11:00:46;;;;;;;2.87;2.60;;;9.90;99.90;;;;;;5039659;28;20976;-82
2024/01/01 11:03:15;;;;;;;4.83;2.57;;;9.80;99.90;;;;;;5037926;28;20475;-79
2024/01/01 11:05:45;;;;;;;4.93;2.63;;;9.70;99.90;;;;;;5035622;28;20582;-78
2024/01/01 11:08:25;;;;;;;2.57;2.20;;;9.60;99.90;;;;;;5035943;28;20441;-80
2024/01/01 11:10:55;;;;;;;4.90;2.43;;;9.70;99.90;;;;;;5036994;28;20451;-78
2024/01/01 11:13:52;;;;;;;3.57;2.40;;;9.70;99.90;;;;;;5035692;28;20476;-80
2024/01/01 11:16:20;;;;;;;2.63;2.37;;;10.00;99.90;;;;;;5038058;28;20472;-80
2024/01/01 11:18:49;;;;;;;2.40;2.20;;;10.00;99.90;;;;;;5037587;28;20472;-79
2024/01/01 11:21:28;;;;;;;2.70;2.00;;;10.30;99.90;;;;;;5039077;28;20456;-79
2024/01/01 11:24:01;;;;;;;3.47;2.63;;;10.50;99.90;;;;;;5036928;28;20455;-79
2024/01/01 11:26:35;;;;;;;2.27;1.80;;;10.40;99.90;;;;;;5040316;28;20467;-79
2024/01/01 11:29:06;;;;;;;6.57;2.40;;;10.10;99.90;;;;;;5039076;28;20468;-79
2024/01/01 11:31:35;;;;;;;3.33;2.77;;;9.90;99.90;;;;;;5042389;28;20451;-80
2024/01/01 11:34:08;;;;;;;6.70;2.77;;;9.60;99.90;;;;;;5041492;28;20443;-79
2024/01/01 11:36:53;;;;;;;2.10;2.00;;;9.70;99.90;;;;;;5040566;28;20453;-80
2024/01/01 11:39:24;;;;;;;4.17;2.77;;;9.70;99.90;;;;;;5041815;28;20491;-81
2024/01/01 11:41:57;;;;;;;4.43;2.37;;;9.80;99.90;;;;;;5042315;28;20521;-80
2024/01/01 11:44:25;;;;;;;3.83;2.23;;;10.00;99.90;;;;;;5040654;28;20583;-80
2024/01/01 11:46:56;;;;;;;3.70;2.20;;;10.10;99.90;;;;;;5040527;28;20444;-79
2024/01/01 11:49:24;;;;;;;4.50;2.20;;;10.20;99.90;;;;;;5056516;28;20920;-80
2024/01/01 11:51:55;;;;;;;5.23;1.90;;;10.10;99.90;;;;;;5039529;28;20464;-81
2024/01/01 11:54:26;;;;;;;3.90;2.00;;;10.20;99.90;;;;;;5041678;28;20460;-80
2024/01/01 11:56:57;;;;;;;3.70;3.33;;;10.20;99.90;;;;;;5036648;28;20488;-80
2024/01/01 11:59:28;;;;;;;3.10;2.37;;;10.30;99.90;;;;;;5039867;28;21017;-80
2024/01/01 12:01:57;;;;;;;3.00;1.97;;;10.30;99.90;;;;;;5052242;28;20901;-80
2024/01/01 12:04:26;;;;;;;4.50;2.33;;;10.30;99.90;;;;;;5040421;28;20480;-79
2024/01/01 12:06:54;;;;;;;3.23;2.93;;;10.20;99.90;;;;;;5042723;28;20455;-80
2024/01/01 12:09:23;;;;;;;2.77;1.90;;;10.20;99.90;;;;;;5040886;28;20992;-80
2024/01/01 12:12:05;;;;;;;2.00;1.70;;;10.20;99.90;;;;;;5040797;28;20456;-81
2024/01/01 12:14:34;;;;;;;3.23;1.77;;;9.90;99.90;;;;;;5037491;28;20499;-79
2024/01/01 12:17:06;;;;;;;4.07;1.80;;;9.90;99.90;;;;;;5040445;28;20456;-79
2024/01/01 12:19:34;;;;;;;2.03;1.93;;;9.80;99.90;;;;;;5037406;28;20468;-80
2024/01/01 12:22:03;;;;;;;2.50;2.30;;;9.80;99.90;;;;;;5036562;28;20448;-80
2024/01/01 12:24:31;;;;;;;8.13;3.27;;;9.80;99.90;;;;;;5039839;28;20518;-80
2024/01/01 12:27:04;;;;;;;3.90;2.43;;;9.80;99.90;;;;;;5039581;28;20457;-80
2024/01/01 12:29:32;;;;;;;2.83;2.10;;;9.80;99.90;;;;;;5039646;28;20476;-80
2024/01/01 12:32:01;;;;;;;4.07;2.27;;;9.80;99.90;;;;;;5034987;28;20519;-80
2024/01/01 12:34:30;;;;;;;4.47;2.23;;;9.80;99.90;;;;;;5036513;28;20462;-80
2024/01/01 12:36:59;;;;;;;3.50;3.20;;;9.70;99.90;;;;;;5041400;28;20555;-80
2024/01/01 12:39:28;;;;;;;4.27;2.20;;;9.70;99.90;;;;;;5042406;28;20507;-79
2024/01/01 12:41:56;;;;;;;5.50;2.53;;;9.70;99.90;;;;;;5037556;28;20452;-79
2024/01/01 12:44:26;;;;;;;3.70;2.10;;;9.70;99.90;;;;;;5040469;28;20492;-81
2024/01/01 12:46:54;;;;;;;7.20;2.97;;;9.80;99.90;;;;;;5038781;28;21040;-80
2024/01/01 12:49:23;;;;;;;3.20;2.07;;;9.80;99.90;;;;;;5038131;28;20489;-80
2024/01/01 12:51:51;;;;;;;3.23;2.87;;;9.60;99.90;;;;;;5035713;28;20449;-79
2024/01/01 12:54:19;;;;;;;4.70;3.10;;;9.60;99.90;;;;;;5035374;28;20518;-78
2024/01/01 12:56:48;;;;;;;3.00;2.70;;;9.60;99.90;;;;;;5040171;28;20455;-79
2024/01/01 12:59:16;;;;;;;4.17;2.27;;;9.50;99.90;;;;;;5039493;28;20486;-78
2024/01/01 13:01:46;;;;;;;4.70;2.23;;;9.50;99.90;;;;;;5034306;28;20451;-80
2024/01/01 13:04:14;;;;;;;5.80;2.73;;;9.50;99.90;;;;;;5039196;28;20472;-79
2024/01/01 13:06:43;;;;;;;4.33;2.10;;;9.50;99.90;;;;;;5051108;28;20457;-79
2024/01/01 13:09:11;;;;;;;6.03;2.50;;;9.50;99.90;;;;;;5039719;28;20512;-80